Charlottesville, VA (22901)

9:59 AM EST on February 09, 2016 (GMT -0500)
Montvue | | Change Station
CLOSE
Current Station
Personal Weather Station
Location: Charlottesville, VA
Elevation: 571 ft
Nearby Weather Stations

Elev 571 ft 38.07 °N, 78.51 °W | Updated 5 seconds ago

Overcast
Overcast
36.9 °F
Feels Like 37 °F
N
0.0
Wind Variable Wind from SW
Gusts 0.0 mph

Today
High -- | Low -- °F
--% Chance of Precip.
Yesterday
High -- | Low -- °F
Precip. -- in
Pressure 29.59 in
Visibility 10.0 miles
Clouds Overcast 6000 ft
Windchill 37 °F
Dew Point 30 °F
Humidity 77%
Rainfall 0.00 in
Snow Depth Not available.
7:11 AM 5:45 PM
New Moon, 1% visible
METAR KCHO 091453Z VRB05KT 10SM OVC060 03/M01 A2958 RMK AO2 SLP018 T00331006 51006
Pressure 29.59 in
Visibility 10.0 miles
Clouds Overcast 6000 ft
Windchill 37 °F
Dew Point 30 °F
Humidity 77%
Rainfall 0.00 in
Snow Depth Not available.
7:11 AM 5:45 PM
New Moon, 1% visible
METAR KCHO 091453Z VRB05KT 10SM OVC060 03/M01 A2958 RMK AO2 SLP018 T00331006 51006

10-Day Weather Forecast

Almanac

Astronomy

Feb. 09, 2016 Rise Set
Actual Time
Civil Twilight
Nautical Twilight
Astronomical Twilight
Moon
Length of Visible Light
Length of Day
Tomorrow will be .
, % of the Moon is Illuminated

Today's Extremes

State Highs State Lows

Community

WunderPhotos

Upload Photos

1,891,614 photos uploaded!

WunderBlog® & News

Nearby

Air Quality

  Air Quality AQ Index Pollutant
Not available.

Snow Depth

Station Depth Elevation

Earthquake Activity

City Distance Mag. Time & Date
Minimum magnitude displayed is 2.5.

Coastal Water Temperatures

Place Temperature

Stations

Nearby Weather Stations

Station Location Temp. Windchill Dew Point Humidity Wind Precip. Elev Updated Type
                   

Watches & Warnings

There are currently no watches in effect.